Guttenberg, Iowa
Current Conditions -  °F | °C
As of 12:55 PM on Monday 20 Oct 2014 (Local Time) from KPDC Reporting Station
Scattered Clouds Scattered Clouds  
Wind Chill: 18°   Ceiling: Unl
Heat Index: 18°   Visibility: 10mi
Dew Point:   Wind: 14mph
Humidity: 43%   Direction: 310°NW
Pressure: 29.92"   Gusts: 21mph
Location:  42.79°N, 91.1°W
Report Text: KPDC 201755Z AUTO 31012G18KT 10SM SCT048 18/05 A2992 RMK AO2 T01760050 10176 20065
Loading
Personal Weather Stations






























Interactive Weather Map
Tropical Storm Tracking
New forecast layout! Learn more

10-Day Weather Forecast

Advertisements
Track Severe Weather on mobile